sensor_id;sensor_type;location;lat;lon;timestamp;noise_LAeq;noise_LA_min;noise_LA_max;noise_LA01;noise_LA95
59284;Laerm;45056;47.602;9.886;2023-04-28T00:00:12;42.89;34.69;57.19;;
59284;Laerm;45056;47.602;9.886;2023-04-28T00:02:40;41.15;35.36;49.41;;
59284;Laerm;45056;47.602;9.886;2023-04-28T00:05:08;39.00;35.36;43.58;;
59284;Laerm;45056;47.602;9.886;2023-04-28T00:07:36;38.64;35.04;41.30;;
59284;Laerm;45056;47.602;9.886;2023-04-28T00:10:06;40.05;34.69;49.28;;
59284;Laerm;45056;47.602;9.886;2023-04-28T00:12:34;42.81;35.04;57.99;;
59284;Laerm;45056;47.602;9.886;2023-04-28T00:15:03;39.11;34.69;53.71;;
59284;Laerm;45056;47.602;9.886;2023-04-28T00:17:32;38.51;34.31;45.17;;
59284;Laerm;45056;47.602;9.886;2023-04-28T00:20:00;39.09;35.36;43.49;;
59284;Laerm;45056;47.602;9.886;2023-04-28T00:22:28;38.95;34.69;42.65;;
59284;Laerm;45056;47.602;9.886;2023-04-28T00:24:57;38.62;34.69;42.16;;
59284;Laerm;45056;47.602;9.886;2023-04-28T00:27:25;38.40;35.04;41.89;;
59284;Laerm;45056;47.602;9.886;2023-04-28T00:29:53;38.88;34.69;42.22;;
59284;Laerm;45056;47.602;9.886;2023-04-28T00:32:21;40.66;35.04;53.51;;
59284;Laerm;45056;47.602;9.886;2023-04-28T00:34:50;39.26;34.31;43.63;;
59284;Laerm;45056;47.602;9.886;2023-04-28T00:37:19;39.82;35.66;42.22;;
59284;Laerm;45056;47.602;9.886;2023-04-28T00:39:47;39.12;33.90;42.22;;
59284;Laerm;45056;47.602;9.886;2023-04-28T00:42:16;38.44;34.31;40.71;;
59284;Laerm;45056;47.602;9.886;2023-04-28T00:44:44;38.67;34.31;44.58;;
59284;Laerm;45056;47.602;9.886;2023-04-28T00:47:13;40.71;34.69;54.39;;
59284;Laerm;45056;47.602;9.886;2023-04-28T00:49:43;38.27;33.90;40.98;;
59284;Laerm;45056;47.602;9.886;2023-04-28T00:52:13;38.39;34.31;40.80;;
59284;Laerm;45056;47.602;9.886;2023-04-28T00:54:41;38.87;34.69;42.16;;
59284;Laerm;45056;47.602;9.886;2023-04-28T00:57:09;38.77;35.04;42.93;;
59284;Laerm;45056;47.602;9.886;2023-04-28T00:59:37;38.85;35.04;42.47;;
59284;Laerm;45056;47.602;9.886;2023-04-28T01:02:06;44.21;34.69;57.79;;
59284;Laerm;45056;47.602;9.886;2023-04-28T01:04:35;40.06;35.36;48.21;;
59284;Laerm;45056;47.602;9.886;2023-04-28T01:07:03;39.75;35.36;45.54;;
59284;Laerm;45056;47.602;9.886;2023-04-28T01:09:33;38.71;34.69;41.22;;
59284;Laerm;45056;47.602;9.886;2023-04-28T01:12:01;38.75;35.04;41.53;;
59284;Laerm;45056;47.602;9.886;2023-04-28T01:14:30;38.99;35.04;42.98;;
59284;Laerm;45056;47.602;9.886;2023-04-28T01:16:58;39.38;33.90;56.47;;
59284;Laerm;45056;47.602;9.886;2023-04-28T01:19:26;38.21;35.04;40.53;;
59284;Laerm;45056;47.602;9.886;2023-04-28T01:21:55;40.18;34.69;51.22;;
59284;Laerm;45056;47.602;9.886;2023-04-28T01:24:24;38.93;33.90;42.88;;
59284;Laerm;45056;47.602;9.886;2023-04-28T01:26:53;39.76;35.04;45.43;;
59284;Laerm;45056;47.602;9.886;2023-04-28T01:29:21;39.55;34.69;50.31;;
59284;Laerm;45056;47.602;9.886;2023-04-28T01:31:49;40.18;34.69;55.44;;
59284;Laerm;45056;47.602;9.886;2023-04-28T01:34:17;38.85;35.36;41.06;;
59284;Laerm;45056;47.602;9.886;2023-04-28T01:36:45;39.90;35.36;57.25;;
59284;Laerm;45056;47.602;9.886;2023-04-28T01:39:13;40.04;36.69;45.91;;
59284;Laerm;45056;47.602;9.886;2023-04-28T01:41:43;39.02;33.90;43.77;;
59284;Laerm;45056;47.602;9.886;2023-04-28T01:44:11;40.96;35.66;53.26;;
59284;Laerm;45056;47.602;9.886;2023-04-28T01:46:39;40.44;35.01;54.39;;
59284;Laerm;45056;47.602;9.886;2023-04-28T01:49:07;40.61;35.36;52.22;;
59284;Laerm;45056;47.602;9.886;2023-04-28T01:51:35;38.33;34.69;41.89;;
59284;Laerm;45056;47.602;9.886;2023-04-28T01:54:03;38.99;35.36;43.09;;
59284;Laerm;45056;47.602;9.886;2023-04-28T01:56:32;42.54;34.69;60.10;;
59284;Laerm;45056;47.602;9.886;2023-04-28T01:59:01;38.89;35.36;43.09;;
59284;Laerm;45056;47.602;9.886;2023-04-28T02:01:29;45.19;35.36;58.17;;
59284;Laerm;45056;47.602;9.886;2023-04-28T02:03:57;41.05;35.01;57.81;;
59284;Laerm;45056;47.602;9.886;2023-04-28T02:06:25;38.72;34.69;51.19;;
59284;Laerm;45056;47.602;9.886;2023-04-28T02:08:53;39.14;35.36;47.18;;
59284;Laerm;45056;47.602;9.886;2023-04-28T02:11:22;41.35;35.31;57.37;;
59284;Laerm;45056;47.602;9.886;2023-04-28T02:13:50;41.76;35.66;56.93;;
59284;Laerm;45056;47.602;9.886;2023-04-28T02:16:19;39.69;35.36;54.14;;
59284;Laerm;45056;47.602;9.886;2023-04-28T02:18:47;40.56;35.04;53.42;;
59284;Laerm;45056;47.602;9.886;2023-04-28T02:21:15;41.03;35.66;49.12;;
59284;Laerm;45056;47.602;9.886;2023-04-28T02:23:46;41.33;35.36;58.00;;
59284;Laerm;45056;47.602;9.886;2023-04-28T02:26:16;39.73;33.90;44.87;;
59284;Laerm;45056;47.602;9.886;2023-04-28T02:28:44;39.39;35.36;43.29;;
59284;Laerm;45056;47.602;9.886;2023-04-28T02:31:11;41.30;35.94;54.75;;
59284;Laerm;45056;47.602;9.886;2023-04-28T02:33:42;39.46;35.94;43.77;;
59284;Laerm;45056;47.602;9.886;2023-04-28T02:36:10;42.58;37.32;55.05;;
59284;Laerm;45056;47.602;9.886;2023-04-28T02:38:38;42.45;36.91;53.19;;
59284;Laerm;45056;47.602;9.886;2023-04-28T02:41:07;39.71;36.20;47.52;;
59284;Laerm;45056;47.602;9.886;2023-04-28T02:43:36;43.46;37.12;59.80;;
59284;Laerm;45056;47.602;9.886;2023-04-28T02:46:04;42.86;37.12;56.86;;
59284;Laerm;45056;47.602;9.886;2023-04-28T02:48:32;43.77;36.20;56.05;;
59284;Laerm;45056;47.602;9.886;2023-04-28T02:51:03;42.67;36.69;54.71;;
59284;Laerm;45056;47.602;9.886;2023-04-28T02:53:31;42.49;37.12;53.64;;
59284;Laerm;45056;47.602;9.886;2023-04-28T02:55:59;48.14;36.45;63.88;;
59284;Laerm;45056;47.602;9.886;2023-04-28T02:58:27;48.64;35.36;66.54;;
59284;Laerm;45056;47.602;9.886;2023-04-28T03:00:55;46.00;37.32;59.15;;
59284;Laerm;45056;47.602;9.886;2023-04-28T03:03:24;42.75;36.69;56.73;;
59284;Laerm;45056;47.602;9.886;2023-04-28T03:05:52;42.91;37.32;55.85;;
59284;Laerm;45056;47.602;9.886;2023-04-28T03:08:23;45.03;37.52;58.92;;
59284;Laerm;45056;47.602;9.886;2023-04-28T03:10:51;45.02;39.08;55.30;;
59284;Laerm;45056;47.602;9.886;2023-04-28T03:13:19;48.03;38.81;62.03;;
59284;Laerm;45056;47.602;9.886;2023-04-28T03:15:47;44.84;40.03;57.43;;
59284;Laerm;45056;47.602;9.886;2023-04-28T03:18:15;44.24;40.23;52.78;;
59284;Laerm;45056;47.602;9.886;2023-04-28T03:20:44;43.50;39.92;52.32;;
59284;Laerm;45056;47.602;9.886;2023-04-28T03:23:12;47.50;40.62;64.76;;
59284;Laerm;45056;47.602;9.886;2023-04-28T03:25:41;49.53;41.30;63.02;;
59284;Laerm;45056;47.602;9.886;2023-04-28T03:28:09;50.68;40.53;61.92;;
59284;Laerm;45056;47.602;9.886;2023-04-28T03:30:37;49.37;40.98;61.19;;
59284;Laerm;45056;47.602;9.886;2023-04-28T03:33:05;51.21;42.03;66.96;;
59284;Laerm;45056;47.602;9.886;2023-04-28T03:35:33;48.80;44.80;59.00;;
59284;Laerm;45056;47.602;9.886;2023-04-28T03:38:01;50.95;44.65;65.83;;
59284;Laerm;45056;47.602;9.886;2023-04-28T03:40:29;48.67;44.87;58.71;;
59284;Laerm;45056;47.602;9.886;2023-04-28T03:42:58;51.75;45.39;65.12;;
59284;Laerm;45056;47.602;9.886;2023-04-28T03:45:27;50.80;45.36;64.31;;
59284;Laerm;45056;47.602;9.886;2023-04-28T03:47:55;54.84;46.62;68.85;;
59284;Laerm;45056;47.602;9.886;2023-04-28T03:50:23;50.74;42.98;64.78;;
59284;Laerm;45056;47.602;9.886;2023-04-28T03:52:51;49.86;43.09;61.83;;
59284;Laerm;45056;47.602;9.886;2023-04-28T03:55:19;52.76;42.59;67.21;;
59284;Laerm;45056;47.602;9.886;2023-04-28T03:57:47;47.40;39.92;59.85;;
59284;Laerm;45056;47.602;9.886;2023-04-28T04:00:17;50.37;41.46;64.57;;
59284;Laerm;45056;47.602;9.886;2023-04-28T04:02:45;52.48;42.93;63.74;;
59284;Laerm;45056;47.602;9.886;2023-04-28T04:05:13;54.25;40.62;68.97;;
59284;Laerm;45056;47.602;9.886;2023-04-28T04:07:41;48.19;42.29;60.33;;
59284;Laerm;45056;47.602;9.886;2023-04-28T04:10:10;48.62;40.79;62.00;;
59284;Laerm;45056;47.602;9.886;2023-04-28T04:12:38;48.19;41.82;62.02;;
59284;Laerm;45056;47.602;9.886;2023-04-28T04:15:08;48.93;43.49;63.11;;
59284;Laerm;45056;47.602;9.886;2023-04-28T04:17:37;47.37;42.41;60.89;;
59284;Laerm;45056;47.602;9.886;2023-04-28T04:20:07;49.34;41.48;60.84;;
59284;Laerm;45056;47.602;9.886;2023-04-28T04:22:35;50.55;42.71;64.52;;
59284;Laerm;45056;47.602;9.886;2023-04-28T04:25:04;50.74;43.77;64.70;;
59284;Laerm;45056;47.602;9.886;2023-04-28T04:27:33;50.54;42.35;63.44;;
59284;Laerm;45056;47.602;9.886;2023-04-28T04:30:01;52.94;44.62;66.85;;
59284;Laerm;45056;47.602;9.886;2023-04-28T04:32:29;53.66;46.18;62.93;;
59284;Laerm;45056;47.602;9.886;2023-04-28T04:34:58;51.53;45.01;62.11;;
59284;Laerm;45056;47.602;9.886;2023-04-28T04:37:26;52.88;45.27;67.47;;
59284;Laerm;45056;47.602;9.886;2023-04-28T04:39:54;53.37;45.91;64.50;;
59284;Laerm;45056;47.602;9.886;2023-04-28T04:42:23;53.70;46.25;66.35;;
59284;Laerm;45056;47.602;9.886;2023-04-28T04:44:51;53.55;47.03;63.51;;
59284;Laerm;45056;47.602;9.886;2023-04-28T04:47:19;53.89;45.36;65.79;;
59284;Laerm;45056;47.602;9.886;2023-04-28T04:49:48;54.43;44.69;63.42;;
59284;Laerm;45056;47.602;9.886;2023-04-28T04:52:18;52.40;44.07;64.54;;
59284;Laerm;45056;47.602;9.886;2023-04-28T04:54:46;54.03;44.87;66.05;;
59284;Laerm;45056;47.602;9.886;2023-04-28T04:57:14;53.37;45.72;65.19;;
59284;Laerm;45056;47.602;9.886;2023-04-28T04:59:42;53.23;44.65;66.46;;
59284;Laerm;45056;47.602;9.886;2023-04-28T05:02:10;53.57;45.60;62.03;;
59284;Laerm;45056;47.602;9.886;2023-04-28T05:04:38;51.93;47.06;64.91;;
59284;Laerm;45056;47.602;9.886;2023-04-28T05:07:06;54.62;47.98;64.19;;
59284;Laerm;45056;47.602;9.886;2023-04-28T05:09:35;53.71;48.54;63.77;;
59284;Laerm;45056;47.602;9.886;2023-04-28T05:12:04;55.83;49.53;67.02;;
59284;Laerm;45056;47.602;9.886;2023-04-28T05:14:32;52.90;47.83;61.32;;
59284;Laerm;45056;47.602;9.886;2023-04-28T05:17:00;54.72;47.59;64.51;;
59284;Laerm;45056;47.602;9.886;2023-04-28T05:19:28;53.90;46.80;64.63;;
59284;Laerm;45056;47.602;9.886;2023-04-28T05:21:56;52.67;45.60;63.22;;
59284;Laerm;45056;47.602;9.886;2023-04-28T05:24:25;54.46;47.10;64.19;;
59284;Laerm;45056;47.602;9.886;2023-04-28T05:26:58;54.26;48.18;63.20;;
59284;Laerm;45056;47.602;9.886;2023-04-28T05:29:26;54.20;48.69;62.51;;
59284;Laerm;45056;47.602;9.886;2023-04-28T05:31:58;53.39;47.59;63.02;;
59284;Laerm;45056;47.602;9.886;2023-04-28T05:34:27;53.65;48.42;63.42;;
59284;Laerm;45056;47.602;9.886;2023-04-28T05:36:55;56.05;50.53;66.10;;
59284;Laerm;45056;47.602;9.886;2023-04-28T05:39:23;56.64;49.23;66.09;;
59284;Laerm;45056;47.602;9.886;2023-04-28T05:41:51;54.97;48.18;65.22;;
59284;Laerm;45056;47.602;9.886;2023-04-28T05:44:20;56.16;47.36;69.58;;
59284;Laerm;45056;47.602;9.886;2023-04-28T05:46:48;56.15;49.79;67.28;;
59284;Laerm;45056;47.602;9.886;2023-04-28T05:49:16;56.11;48.23;67.18;;
59284;Laerm;45056;47.602;9.886;2023-04-28T05:51:44;55.03;48.16;64.17;;
59284;Laerm;45056;47.602;9.886;2023-04-28T05:54:12;53.64;47.67;63.38;;
59284;Laerm;45056;47.602;9.886;2023-04-28T05:56:40;54.43;45.63;64.04;;
59284;Laerm;45056;47.602;9.886;2023-04-28T05:59:08;55.85;46.57;69.80;;
59284;Laerm;45056;47.602;9.886;2023-04-28T06:01:38;56.35;44.83;71.30;;
59284;Laerm;45056;47.602;9.886;2023-04-28T06:04:06;53.34;46.28;64.69;;
59284;Laerm;45056;47.602;9.886;2023-04-28T06:06:34;53.37;47.10;68.84;;
59284;Laerm;45056;47.602;9.886;2023-04-28T06:09:03;53.26;46.33;65.27;;
59284;Laerm;45056;47.602;9.886;2023-04-28T06:11:31;52.22;46.18;62.56;;
59284;Laerm;45056;47.602;9.886;2023-04-28T06:13:59;55.45;46.55;68.80;;
59284;Laerm;45056;47.602;9.886;2023-04-28T06:16:27;53.79;44.94;65.84;;
59284;Laerm;45056;47.602;9.886;2023-04-28T06:18:57;52.91;45.83;60.59;;
59284;Laerm;45056;47.602;9.886;2023-04-28T06:21:25;54.22;46.02;64.83;;
59284;Laerm;45056;47.602;9.886;2023-04-28T06:23:54;53.10;44.90;63.32;;
59284;Laerm;45056;47.602;9.886;2023-04-28T06:26:23;53.28;46.13;62.66;;
59284;Laerm;45056;47.602;9.886;2023-04-28T06:28:51;52.52;46.57;61.31;;
59284;Laerm;45056;47.602;9.886;2023-04-28T06:31:19;51.64;45.75;62.79;;
59284;Laerm;45056;47.602;9.886;2023-04-28T06:33:47;57.19;44.39;69.72;;
59284;Laerm;45056;47.602;9.886;2023-04-28T06:36:16;52.51;45.39;60.84;;
59284;Laerm;45056;47.602;9.886;2023-04-28T06:38:44;51.55;43.77;60.65;;
59284;Laerm;45056;47.602;9.886;2023-04-28T06:41:12;51.92;43.49;64.57;;
59284;Laerm;45056;47.602;9.886;2023-04-28T06:43:40;51.47;42.88;60.19;;
59284;Laerm;45056;47.602;9.886;2023-04-28T06:46:09;50.73;43.34;62.19;;
59284;Laerm;45056;47.602;9.886;2023-04-28T06:48:37;51.26;43.54;60.38;;
59284;Laerm;45056;47.602;9.886;2023-04-28T06:51:05;50.51;43.58;60.77;;
59284;Laerm;45056;47.602;9.886;2023-04-28T06:53:34;52.04;43.19;63.09;;
59284;Laerm;45056;47.602;9.886;2023-04-28T06:56:04;52.50;42.88;64.22;;
59284;Laerm;45056;47.602;9.886;2023-04-28T06:58:32;51.90;42.30;63.28;;
59284;Laerm;45056;47.602;9.886;2023-04-28T07:01:00;53.88;42.76;64.85;;
59284;Laerm;45056;47.602;9.886;2023-04-28T07:03:29;52.00;41.06;62.65;;
59284;Laerm;45056;47.602;9.886;2023-04-28T07:05:57;52.70;43.44;73.80;;
59284;Laerm;45056;47.602;9.886;2023-04-28T07:08:25;58.50;43.49;75.55;;
59284;Laerm;45056;47.602;9.886;2023-04-28T07:10:56;49.91;42.09;62.96;;
59284;Laerm;45056;47.602;9.886;2023-04-28T07:13:24;50.07;43.29;58.81;;
59284;Laerm;45056;47.602;9.886;2023-04-28T07:15:52;50.76;42.35;62.16;;
59284;Laerm;45056;47.602;9.886;2023-04-28T07:18:20;51.35;42.74;63.79;;
59284;Laerm;45056;47.602;9.886;2023-04-28T07:20:49;51.39;42.53;63.20;;
59284;Laerm;45056;47.602;9.886;2023-04-28T07:23:17;50.57;42.71;62.90;;
59284;Laerm;45056;47.602;9.886;2023-04-28T07:25:45;51.77;43.90;61.49;;
59284;Laerm;45056;47.602;9.886;2023-04-28T07:28:14;49.69;43.29;57.32;;
59284;Laerm;45056;47.602;9.886;2023-04-28T07:30:42;51.66;43.39;63.08;;
59284;Laerm;45056;47.602;9.886;2023-04-28T07:33:10;51.24;43.29;61.80;;
59284;Laerm;45056;47.602;9.886;2023-04-28T07:35:39;52.03;42.16;64.31;;
59284;Laerm;45056;47.602;9.886;2023-04-28T07:38:07;52.01;43.34;66.30;;
59284;Laerm;45056;47.602;9.886;2023-04-28T07:40:35;53.02;44.23;65.45;;
59284;Laerm;45056;47.602;9.886;2023-04-28T07:43:03;52.69;42.93;62.51;;
59284;Laerm;45056;47.602;9.886;2023-04-28T07:45:32;53.48;42.98;68.55;;
59284;Laerm;45056;47.602;9.886;2023-04-28T07:48:00;49.57;42.35;60.79;;
59284;Laerm;45056;47.602;9.886;2023-04-28T07:50:28;50.52;42.88;60.32;;
59284;Laerm;45056;47.602;9.886;2023-04-28T07:52:57;49.59;41.96;58.71;;
59284;Laerm;45056;47.602;9.886;2023-04-28T07:55:25;50.64;42.59;62.73;;
59284;Laerm;45056;47.602;9.886;2023-04-28T07:57:54;52.66;42.16;66.17;;
59284;Laerm;45056;47.602;9.886;2023-04-28T08:00:24;53.14;44.58;64.92;;
59284;Laerm;45056;47.602;9.886;2023-04-28T08:02:53;52.24;44.58;61.68;;
59284;Laerm;45056;47.602;9.886;2023-04-28T08:05:23;50.13;42.76;58.24;;
59284;Laerm;45056;47.602;9.886;2023-04-28T08:07:51;50.42;43.29;59.63;;
59284;Laerm;45056;47.602;9.886;2023-04-28T08:10:19;49.94;42.47;58.06;;
59284;Laerm;45056;47.602;9.886;2023-04-28T08:12:47;50.03;42.65;58.96;;
59284;Laerm;45056;47.602;9.886;2023-04-28T08:15:15;50.40;43.54;60.69;;
59284;Laerm;45056;47.602;9.886;2023-04-28T08:17:43;51.24;43.86;64.23;;
59284;Laerm;45056;47.602;9.886;2023-04-28T08:20:12;50.58;43.34;58.64;;
59284;Laerm;45056;47.602;9.886;2023-04-28T08:22:41;50.33;42.35;57.56;;
59284;Laerm;45056;47.602;9.886;2023-04-28T08:25:09;50.37;43.49;60.50;;
59284;Laerm;45056;47.602;9.886;2023-04-28T08:27:37;50.88;42.59;60.08;;
59284;Laerm;45056;47.602;9.886;2023-04-28T08:30:07;50.02;43.14;59.46;;
59284;Laerm;45056;47.602;9.886;2023-04-28T08:32:36;51.57;42.93;64.13;;
59284;Laerm;45056;47.602;9.886;2023-04-28T08:35:05;52.45;45.14;61.20;;
59284;Laerm;45056;47.602;9.886;2023-04-28T08:37:35;52.83;44.98;62.08;;
59284;Laerm;45056;47.602;9.886;2023-04-28T08:40:04;53.62;46.82;62.55;;
59284;Laerm;45056;47.602;9.886;2023-04-28T08:42:36;54.25;46.93;62.80;;
59284;Laerm;45056;47.602;9.886;2023-04-28T08:45:06;53.99;46.48;64.47;;
59284;Laerm;45056;47.602;9.886;2023-04-28T08:47:37;54.88;49.04;62.20;;
59284;Laerm;45056;47.602;9.886;2023-04-28T08:50:08;56.00;50.98;66.43;;
59284;Laerm;45056;47.602;9.886;2023-04-28T08:52:41;53.70;49.81;59.88;;
59284;Laerm;45056;47.602;9.886;2023-04-28T08:55:11;55.34;50.09;62.58;;
59284;Laerm;45056;47.602;9.886;2023-04-28T08:57:44;54.70;48.98;61.11;;
59284;Laerm;45056;47.602;9.886;2023-04-28T09:00:13;54.46;47.52;65.60;;
59284;Laerm;45056;47.602;9.886;2023-04-28T09:02:41;53.61;45.20;61.65;;
59284;Laerm;45056;47.602;9.886;2023-04-28T09:05:10;52.74;46.87;64.70;;
59284;Laerm;45056;47.602;9.886;2023-04-28T09:07:40;52.99;45.77;63.53;;
59284;Laerm;45056;47.602;9.886;2023-04-28T09:10:19;53.45;47.24;62.36;;
59284;Laerm;45056;47.602;9.886;2023-04-28T09:12:52;53.01;47.32;60.44;;
59284;Laerm;45056;47.602;9.886;2023-04-28T09:15:33;53.43;45.63;63.78;;
59284;Laerm;45056;47.602;9.886;2023-04-28T09:18:04;52.05;46.15;61.27;;
59284;Laerm;45056;47.602;9.886;2023-04-28T09:20:35;53.02;46.35;70.66;;
59284;Laerm;45056;47.602;9.886;2023-04-28T09:23:15;53.78;46.07;65.07;;
59284;Laerm;45056;47.602;9.886;2023-04-28T09:25:59;53.14;47.81;62.88;;
59284;Laerm;45056;47.602;9.886;2023-04-28T09:28:27;53.31;46.57;65.47;;
59284;Laerm;45056;47.602;9.886;2023-04-28T09:30:56;52.56;45.60;65.17;;
59284;Laerm;45056;47.602;9.886;2023-04-28T09:33:24;52.32;44.73;62.32;;
59284;Laerm;45056;47.602;9.886;2023-04-28T09:35:53;51.88;44.83;59.89;;
59284;Laerm;45056;47.602;9.886;2023-04-28T09:38:23;52.38;44.80;60.51;;
59284;Laerm;45056;47.602;9.886;2023-04-28T09:40:55;51.29;44.73;59.62;;
59284;Laerm;45056;47.602;9.886;2023-04-28T09:43:26;52.12;44.87;62.82;;
59284;Laerm;45056;47.602;9.886;2023-04-28T09:45:57;52.23;45.69;59.92;;
59284;Laerm;45056;47.602;9.886;2023-04-28T09:48:31;52.73;46.10;62.74;;
59284;Laerm;45056;47.602;9.886;2023-04-28T09:51:01;52.93;46.43;61.82;;
59284;Laerm;45056;47.602;9.886;2023-04-28T09:53:33;51.46;44.27;59.32;;
59284;Laerm;45056;47.602;9.886;2023-04-28T09:56:03;51.38;45.14;61.02;;
59284;Laerm;45056;47.602;9.886;2023-04-28T09:58:39;51.60;44.35;60.64;;
59284;Laerm;45056;47.602;9.886;2023-04-28T10:01:09;52.34;45.23;60.87;;
59284;Laerm;45056;47.602;9.886;2023-04-28T10:03:38;59.76;44.69;72.26;;
59284;Laerm;45056;47.602;9.886;2023-04-28T10:06:07;60.26;45.89;73.11;;
59284;Laerm;45056;47.602;9.886;2023-04-28T10:08:36;52.19;45.04;60.19;;
59284;Laerm;45056;47.602;9.886;2023-04-28T10:11:07;52.43;44.62;60.64;;
59284;Laerm;45056;47.602;9.886;2023-04-28T10:13:36;52.67;45.04;62.57;;
59284;Laerm;45056;47.602;9.886;2023-04-28T10:16:06;53.66;46.13;64.34;;
59284;Laerm;45056;47.602;9.886;2023-04-28T10:18:36;53.39;46.48;66.04;;
59284;Laerm;45056;47.602;9.886;2023-04-28T10:21:06;53.65;46.33;62.32;;
59284;Laerm;45056;47.602;9.886;2023-04-28T10:24:14;54.55;48.42;61.68;;
59284;Laerm;45056;47.602;9.886;2023-04-28T10:27:06;53.09;46.23;61.24;;
59284;Laerm;45056;47.602;9.886;2023-04-28T10:29:35;52.94;45.91;60.47;;
59284;Laerm;45056;47.602;9.886;2023-04-28T10:32:18;54.48;47.38;71.66;;
59284;Laerm;45056;47.602;9.886;2023-04-28T10:34:47;53.32;47.20;60.43;;
59284;Laerm;45056;47.602;9.886;2023-04-28T10:37:15;54.04;47.88;63.41;;
59284;Laerm;45056;47.602;9.886;2023-04-28T10:40:34;54.60;46.52;63.12;;
59284;Laerm;45056;47.602;9.886;2023-04-28T10:43:04;54.20;47.65;61.56;;
59284;Laerm;45056;47.602;9.886;2023-04-28T10:46:01;53.17;47.34;61.01;;
59284;Laerm;45056;47.602;9.886;2023-04-28T10:48:56;53.69;46.43;62.44;;
59284;Laerm;45056;47.602;9.886;2023-04-28T10:51:32;54.70;47.36;64.21;;
59284;Laerm;45056;47.602;9.886;2023-04-28T10:54:17;54.38;46.91;71.91;;
59284;Laerm;45056;47.602;9.886;2023-04-28T10:57:18;53.03;46.45;62.00;;
59284;Laerm;45056;47.602;9.886;2023-04-28T10:59:49;52.25;45.91;59.27;;
59284;Laerm;45056;47.602;9.886;2023-04-28T11:02:39;53.32;46.62;61.95;;
59284;Laerm;45056;47.602;9.886;2023-04-28T11:05:17;52.20;45.07;61.20;;
59284;Laerm;45056;47.602;9.886;2023-04-28T11:08:30;53.44;46.66;64.12;;
59284;Laerm;45056;47.602;9.886;2023-04-28T11:11:19;53.03;44.39;63.22;;
59284;Laerm;45056;47.602;9.886;2023-04-28T11:13:49;53.64;45.45;65.00;;
59284;Laerm;45056;47.602;9.886;2023-04-28T11:16:21;54.93;46.78;65.59;;
59284;Laerm;45056;47.602;9.886;2023-04-28T11:18:59;54.28;47.12;64.70;;
59284;Laerm;45056;47.602;9.886;2023-04-28T11:21:32;52.71;44.87;66.81;;
59284;Laerm;45056;47.602;9.886;2023-04-28T11:24:08;52.45;44.83;61.53;;
59284;Laerm;45056;47.602;9.886;2023-04-28T11:26:39;52.42;43.14;68.54;;
59284;Laerm;45056;47.602;9.886;2023-04-28T11:29:09;52.86;43.19;62.28;;
59284;Laerm;45056;47.602;9.886;2023-04-28T11:31:38;51.42;43.77;60.24;;
59284;Laerm;45056;47.602;9.886;2023-04-28T11:34:09;51.97;44.47;60.07;;
59284;Laerm;45056;47.602;9.886;2023-04-28T11:36:41;52.25;44.03;59.58;;
59284;Laerm;45056;47.602;9.886;2023-04-28T11:39:11;52.48;44.43;60.92;;
59284;Laerm;45056;47.602;9.886;2023-04-28T11:41:43;51.63;44.97;59.31;;
59284;Laerm;45056;47.602;9.886;2023-04-28T11:44:15;53.08;45.69;62.93;;
59284;Laerm;45056;47.602;9.886;2023-04-28T11:46:45;53.60;43.99;64.89;;
59284;Laerm;45056;47.602;9.886;2023-04-28T11:49:17;52.32;43.77;59.91;;
59284;Laerm;45056;47.602;9.886;2023-04-28T11:51:46;53.19;43.19;63.67;;
59284;Laerm;45056;47.602;9.886;2023-04-28T11:54:21;52.95;43.90;60.51;;
59284;Laerm;45056;47.602;9.886;2023-04-28T11:56:50;51.67;43.86;59.10;;
59284;Laerm;45056;47.602;9.886;2023-04-28T11:59:26;52.96;46.02;61.06;;
59284;Laerm;45056;47.602;9.886;2023-04-28T12:01:57;53.66;45.39;64.56;;
59284;Laerm;45056;47.602;9.886;2023-04-28T12:04:28;53.61;44.23;62.44;;
59284;Laerm;45056;47.602;9.886;2023-04-28T12:06:59;53.11;45.89;61.91;;
59284;Laerm;45056;47.602;9.886;2023-04-28T12:09:29;52.75;43.44;62.86;;
59284;Laerm;45056;47.602;9.886;2023-04-28T12:12:00;51.59;44.07;61.27;;
59284;Laerm;45056;47.602;9.886;2023-04-28T12:14:53;52.78;45.23;63.20;;
59284;Laerm;45056;47.602;9.886;2023-04-28T12:17:25;51.91;44.58;61.74;;
59284;Laerm;45056;47.602;9.886;2023-04-28T12:19:54;53.05;44.76;62.83;;
59284;Laerm;45056;47.602;9.886;2023-04-28T12:22:24;52.80;44.65;60.69;;
59284;Laerm;45056;47.602;9.886;2023-04-28T12:25:07;53.27;44.97;61.44;;
59284;Laerm;45056;47.602;9.886;2023-04-28T12:27:37;53.65;45.42;62.95;;
59284;Laerm;45056;47.602;9.886;2023-04-28T12:30:25;53.20;45.69;61.13;;
59284;Laerm;45056;47.602;9.886;2023-04-28T12:32:54;54.38;47.44;64.52;;
59284;Laerm;45056;47.602;9.886;2023-04-28T12:35:23;53.74;45.04;64.06;;
59284;Laerm;45056;47.602;9.886;2023-04-28T12:37:53;52.44;44.51;62.82;;
59284;Laerm;45056;47.602;9.886;2023-04-28T12:40:22;50.36;44.43;58.90;;
59284;Laerm;45056;47.602;9.886;2023-04-28T12:42:50;51.42;44.43;61.57;;
59284;Laerm;45056;47.602;9.886;2023-04-28T12:45:18;51.56;44.27;59.71;;
59284;Laerm;45056;47.602;9.886;2023-04-28T12:47:47;51.21;43.68;61.84;;
59284;Laerm;45056;47.602;9.886;2023-04-28T12:50:15;51.04;42.71;63.44;;
59284;Laerm;45056;47.602;9.886;2023-04-28T12:52:43;50.32;43.09;59.07;;
59284;Laerm;45056;47.602;9.886;2023-04-28T12:55:11;49.63;44.27;56.99;;
59284;Laerm;45056;47.602;9.886;2023-04-28T12:57:39;51.11;43.58;60.20;;
59284;Laerm;45056;47.602;9.886;2023-04-28T13:00:08;51.09;43.24;59.83;;
59284;Laerm;45056;47.602;9.886;2023-04-28T13:02:37;50.73;43.09;58.50;;
59284;Laerm;45056;47.602;9.886;2023-04-28T13:05:07;51.53;43.34;61.96;;
59284;Laerm;45056;47.602;9.886;2023-04-28T13:07:36;50.87;42.76;59.51;;
59284;Laerm;45056;47.602;9.886;2023-04-28T13:10:05;51.21;42.53;59.99;;
59284;Laerm;45056;47.602;9.886;2023-04-28T13:12:33;51.34;42.76;59.95;;
59284;Laerm;45056;47.602;9.886;2023-04-28T13:15:02;51.72;43.34;61.89;;
59284;Laerm;45056;47.602;9.886;2023-04-28T13:17:30;50.71;42.65;59.05;;
59284;Laerm;45056;47.602;9.886;2023-04-28T13:19:59;51.02;43.77;59.53;;
59284;Laerm;45056;47.602;9.886;2023-04-28T13:22:31;49.34;43.24;56.81;;
59284;Laerm;45056;47.602;9.886;2023-04-28T13:24:59;49.88;43.34;57.69;;
59284;Laerm;45056;47.602;9.886;2023-04-28T13:27:27;49.74;43.77;58.17;;
59284;Laerm;45056;47.602;9.886;2023-04-28T13:29:56;50.88;44.58;57.03;;
59284;Laerm;45056;47.602;9.886;2023-04-28T13:32:24;49.02;42.98;61.72;;
59284;Laerm;45056;47.602;9.886;2023-04-28T13:34:53;47.92;42.41;57.48;;
59284;Laerm;45056;47.602;9.886;2023-04-28T13:37:21;50.70;43.58;62.01;;
59284;Laerm;45056;47.602;9.886;2023-04-28T13:39:51;49.13;43.58;60.12;;
59284;Laerm;45056;47.602;9.886;2023-04-28T13:42:19;49.98;44.07;61.06;;
59284;Laerm;45056;47.602;9.886;2023-04-28T13:44:47;50.17;43.24;57.56;;
59284;Laerm;45056;47.602;9.886;2023-04-28T13:47:15;49.82;43.54;57.52;;
59284;Laerm;45056;47.602;9.886;2023-04-28T13:49:43;50.72;45.63;59.06;;
59284;Laerm;45056;47.602;9.886;2023-04-28T13:52:11;49.74;43.04;62.35;;
59284;Laerm;45056;47.602;9.886;2023-04-28T13:54:40;49.47;43.85;56.40;;
59284;Laerm;45056;47.602;9.886;2023-04-28T13:57:10;48.65;43.04;57.45;;
59284;Laerm;45056;47.602;9.886;2023-04-28T13:59:39;48.45;42.53;55.72;;